PWSweather.com
Personal Weather Stations
Station Observations
ALMOSTER
Urb. Mas Carreras, AlmosterES 43393

Urb. Mas CarrerasAlmosterES 43393

Lat: 41.1908333333, Lon: 1.1086111111

Elevation: 836.6

Station Type: Davis Vantage Pro 2

http://www.meteoalmoster.net

High Low Average
Temperature 79.5°F26.4°C 67.5°F19.7°C 72.6°F22.6°C
Dew Point 67.1°F19.5°C 57.4°F14.1°C 63.0°F17.2°C
Winds 10.0 mph 16.1 kmh Calm Calm 3.0 mph E4.8 kmh E
Wind Gusts 19.0 mph30.6 kmh -- 7.0 mph11.3 kmh
Humidity 89% 50% 73%
Pressure 30.10 in1019.3 mb 30.06 in1017.9 mb -
Precipitation 0.00 in0.0 mm - -
Hour Temp Dew Point Humidity Winds Wind Gusts Pressure Precip Precip Rate Daily Precip Total
12:00 AM 72.0°F22.2°C 66.7°F19.3°C 84% Calm Calm 1.0 mph1.6 kmh 30.07 in1018.3 mb 0.00 in0.0 mm 0.00 in0.0 mm 0.00 in0.0 mm
12:30 AM 71.8°F22.1°C 67.1°F19.5°C 85% Calm Calm -- 30.08 in1018.6 mb 0.00 in0.0 mm 0.00 in0.0 mm 0.00 in0.0 mm
01:00 AM 71.2°F21.8°C 66.9°F19.4°C 86% Calm Calm -- 30.07 in1018.3 mb 0.00 in0.0 mm 0.00 in0.0 mm 0.00 in0.0 mm
01:30 AM 70.9°F21.6°C 66.4°F19.1°C 86% Calm Calm -- 30.07 in1018.3 mb 0.00 in0.0 mm 0.00 in0.0 mm 0.00 in0.0 mm
02:00 AM 70.2°F21.2°C 66.0°F18.9°C 87% Calm Calm -- 30.06 in1017.9 mb 0.00 in0.0 mm 0.00 in0.0 mm 0.00 in0.0 mm
02:30 AM 70.3°F21.3°C 66.2°F19.0°C 87% Calm Calm -- 30.06 in1017.9 mb 0.00 in0.0 mm 0.00 in0.0 mm 0.00 in0.0 mm
03:00 AM 69.8°F21.0°C 65.8°F18.8°C 87% Calm Calm -- 30.06 in1017.9 mb 0.00 in0.0 mm 0.00 in0.0 mm 0.00 in0.0 mm
03:30 AM 68.4°F20.2°C 64.9°F18.3°C 89% Calm Calm -- 30.06 in1017.9 mb 0.00 in0.0 mm 0.00 in0.0 mm 0.00 in0.0 mm
04:00 AM 69.6°F20.9°C 65.7°F18.7°C 87% Calm Calm -- 30.06 in1017.9 mb 0.00 in0.0 mm 0.00 in0.0 mm 0.00 in0.0 mm
04:30 AM 67.5°F19.7°C 63.9°F17.7°C 88% Calm Calm -- 30.06 in1017.9 mb 0.00 in0.0 mm 0.00 in0.0 mm 0.00 in0.0 mm
05:00 AM 69.3°F20.7°C 65.5°F18.6°C 88% Calm Calm -- 30.06 in1017.9 mb 0.00 in0.0 mm 0.00 in0.0 mm 0.00 in0.0 mm
05:30 AM 69.3°F20.7°C 65.5°F18.6°C 88% Calm Calm -- 30.07 in1018.3 mb 0.00 in0.0 mm 0.00 in0.0 mm 0.00 in0.0 mm
06:00 AM 69.4°F20.8°C 65.8°F18.8°C 88% Calm Calm -- 30.07 in1018.3 mb 0.00 in0.0 mm 0.00 in0.0 mm 0.00 in0.0 mm
06:30 AM 70.3°F21.3°C 66.0°F18.9°C 86% Calm Calm -- 30.08 in1018.6 mb 0.00 in0.0 mm 0.00 in0.0 mm 0.00 in0.0 mm
07:00 AM 70.5°F21.4°C 63.3°F17.4°C 78% Calm Calm 5.0 mph8.0 kmh 30.08 in1018.6 mb 0.00 in0.0 mm 0.00 in0.0 mm 0.00 in0.0 mm
07:30 AM 73.0°F22.8°C 60.3°F15.7°C 64% 2.0 mph WNW3.2 kmh WNW 7.0 mph11.3 kmh 30.08 in1018.6 mb 0.00 in0.0 mm 0.00 in0.0 mm 0.00 in0.0 mm
08:00 AM 75.7°F24.3°C 57.9°F14.4°C 54% 1.0 mph WNW1.6 kmh WNW 4.0 mph6.4 kmh 30.08 in1018.6 mb 0.00 in0.0 mm 0.00 in0.0 mm 0.00 in0.0 mm
08:30 AM 76.3°F24.6°C 57.4°F14.1°C 52% 3.0 mph S4.8 kmh S 8.0 mph12.9 kmh 30.08 in1018.6 mb 0.00 in0.0 mm 0.00 in0.0 mm 0.00 in0.0 mm
09:00 AM 76.6°F24.8°C 57.7°F14.3°C 52% 3.0 mph SE4.8 kmh SE 8.0 mph12.9 kmh 30.08 in1018.6 mb 0.00 in0.0 mm 0.00 in0.0 mm 0.00 in0.0 mm
09:30 AM 77.0°F25.0°C 58.1°F14.5°C 52% 3.0 mph SSW4.8 kmh SSW 9.0 mph14.5 kmh 30.08 in1018.6 mb 0.00 in0.0 mm 0.00 in0.0 mm 0.00 in0.0 mm
10:00 AM 77.7°F25.4°C 58.6°F14.8°C 52% 4.0 mph SE6.4 kmh SE 9.0 mph14.5 kmh 30.08 in1018.6 mb 0.00 in0.0 mm 0.00 in0.0 mm 0.00 in0.0 mm
10:30 AM 78.6°F25.9°C 58.5°F14.7°C 50% 4.0 mph SSE6.4 kmh SSE 12.0 mph19.3 kmh 30.08 in1018.6 mb 0.00 in0.0 mm 0.00 in0.0 mm 0.00 in0.0 mm
11:00 AM 79.5°F26.4°C 61.0°F16.1°C 53% 6.0 mph SSE9.7 kmh SSE 15.0 mph24.1 kmh 30.08 in1018.6 mb 0.00 in0.0 mm 0.00 in0.0 mm 0.00 in0.0 mm
11:30 AM 77.4°F25.2°C 63.3°F17.4°C 62% 8.0 mph SE12.9 kmh SE 17.0 mph27.4 kmh 30.09 in1019.0 mb 0.00 in0.0 mm 0.00 in0.0 mm 0.00 in0.0 mm
12:00 PM 77.9°F25.5°C 64.2°F17.9°C 63% 8.0 mph SE12.9 kmh SE 16.0 mph25.7 kmh 30.09 in1019.0 mb 0.00 in0.0 mm 0.00 in0.0 mm 0.00 in0.0 mm
12:30 PM 76.8°F24.9°C 64.2°F17.9°C 65% 9.0 mph SE14.5 kmh SE 17.0 mph27.4 kmh 30.10 in1019.3 mb 0.00 in0.0 mm 0.00 in0.0 mm 0.00 in0.0 mm
01:00 PM 75.6°F24.2°C 63.5°F17.5°C 66% 10.0 mph SE16.1 kmh SE 19.0 mph30.6 kmh 30.09 in1019.0 mb 0.00 in0.0 mm 0.00 in0.0 mm 0.00 in0.0 mm
01:30 PM 75.7°F24.3°C 63.1°F17.3°C 65% 7.0 mph SE11.3 kmh SE 17.0 mph27.4 kmh 30.09 in1019.0 mb 0.00 in0.0 mm 0.00 in0.0 mm 0.00 in0.0 mm
02:00 PM 75.9°F24.4°C 63.3°F17.4°C 65% 8.0 mph SE12.9 kmh SE 18.0 mph29.0 kmh 30.09 in1019.0 mb 0.00 in0.0 mm 0.00 in0.0 mm 0.00 in0.0 mm
02:30 PM 75.6°F24.2°C 63.0°F17.2°C 65% 9.0 mph SSE14.5 kmh SSE 15.0 mph24.1 kmh 30.08 in1018.6 mb 0.00 in0.0 mm 0.00 in0.0 mm 0.00 in0.0 mm
03:00 PM 75.0°F23.9°C 63.3°F17.4°C 67% 8.0 mph SSE12.9 kmh SSE 14.0 mph22.5 kmh 30.07 in1018.3 mb 0.00 in0.0 mm 0.00 in0.0 mm 0.00 in0.0 mm
03:30 PM 73.6°F23.1°C 63.1°F17.3°C 70% 10.0 mph SE16.1 kmh SE 18.0 mph29.0 kmh 30.07 in1018.3 mb 0.00 in0.0 mm 0.00 in0.0 mm 0.00 in0.0 mm
04:00 PM 74.7°F23.7°C 63.3°F17.4°C 68% 6.0 mph SSE9.7 kmh SSE 14.0 mph22.5 kmh 30.07 in1018.3 mb 0.00 in0.0 mm 0.00 in0.0 mm 0.00 in0.0 mm
04:30 PM 72.9°F22.7°C 62.8°F17.1°C 71% 9.0 mph SSE14.5 kmh SSE 14.0 mph22.5 kmh 30.07 in1018.3 mb 0.00 in0.0 mm 0.00 in0.0 mm 0.00 in0.0 mm
05:00 PM 73.4°F23.0°C 63.5°F17.5°C 71% 5.0 mph SSE8.0 kmh SSE 11.0 mph17.7 kmh 30.06 in1017.9 mb 0.00 in0.0 mm 0.00 in0.0 mm 0.00 in0.0 mm
05:30 PM 73.4°F23.0°C 63.5°F17.5°C 71% 6.0 mph SSE9.7 kmh SSE 11.0 mph17.7 kmh 30.06 in1017.9 mb 0.00 in0.0 mm 0.00 in0.0 mm 0.00 in0.0 mm
06:00 PM 73.0°F22.8°C 63.5°F17.5°C 72% 4.0 mph SSE6.4 kmh SSE 10.0 mph16.1 kmh 30.06 in1017.9 mb 0.00 in0.0 mm 0.00 in0.0 mm 0.00 in0.0 mm
06:30 PM 73.0°F22.8°C 63.5°F17.5°C 72% 5.0 mph S8.0 kmh S 11.0 mph17.7 kmh 30.07 in1018.3 mb 0.00 in0.0 mm 0.00 in0.0 mm 0.00 in0.0 mm
07:00 PM 72.1°F22.3°C 63.0°F17.2°C 73% 5.0 mph SSE8.0 kmh SSE 9.0 mph14.5 kmh 30.06 in1017.9 mb 0.00 in0.0 mm 0.00 in0.0 mm 0.00 in0.0 mm
07:30 PM 71.2°F21.8°C 63.0°F17.2°C 75% 3.0 mph SE4.8 kmh SE 8.0 mph12.9 kmh 30.07 in1018.3 mb 0.00 in0.0 mm 0.00 in0.0 mm 0.00 in0.0 mm
08:00 PM 70.5°F21.4°C 62.6°F17.0°C 76% 3.0 mph SE4.8 kmh SE 8.0 mph12.9 kmh 30.08 in1018.6 mb 0.00 in0.0 mm 0.00 in0.0 mm 0.00 in0.0 mm
08:30 PM 69.6°F20.9°C 61.9°F16.6°C 76% 2.0 mph SE3.2 kmh SE 9.0 mph14.5 kmh 30.08 in1018.6 mb 0.00 in0.0 mm 0.00 in0.0 mm 0.00 in0.0 mm
09:00 PM 69.1°F20.6°C 61.9°F16.6°C 78% Calm Calm -- 30.08 in1018.6 mb 0.00 in0.0 mm 0.00 in0.0 mm 0.00 in0.0 mm
09:30 PM 69.1°F20.6°C 61.5°F16.4°C 77% Calm Calm -- 30.09 in1019.0 mb 0.00 in0.0 mm 0.00 in0.0 mm 0.00 in0.0 mm
10:00 PM 69.1°F20.6°C 61.5°F16.4°C 77% Calm Calm -- 30.09 in1019.0 mb 0.00 in0.0 mm 0.00 in0.0 mm 0.00 in0.0 mm
10:30 PM 68.9°F20.5°C 61.3°F16.3°C 77% Calm Calm -- 30.09 in1019.0 mb 0.00 in0.0 mm 0.00 in0.0 mm 0.00 in0.0 mm
11:00 PM 68.9°F20.5°C 61.3°F16.3°C 77% Calm Calm -- 30.09 in1019.0 mb 0.00 in0.0 mm 0.00 in0.0 mm 0.00 in0.0 mm
11:30 PM 69.1°F20.6°C 61.5°F16.4°C 77% Calm Calm -- 30.09 in1019.0 mb 0.00 in0.0 mm 0.00 in0.0 mm 0.00 in0.0 mm